sensor_id;sensor_type;location;lat;lon;timestamp;P1;durP1;ratioP1;P2;durP2;ratioP2
479;SDS011;226;48.606;9.096;2022-07-25T00:00:31;9.90;;;6.43;;
479;SDS011;226;48.606;9.096;2022-07-25T00:03:03;13.77;;;6.70;;
479;SDS011;226;48.606;9.096;2022-07-25T00:05:36;12.50;;;7.17;;
479;SDS011;226;48.606;9.096;2022-07-25T00:08:04;14.23;;;6.80;;
479;SDS011;226;48.606;9.096;2022-07-25T00:10:34;11.80;;;6.90;;
479;SDS011;226;48.606;9.096;2022-07-25T00:13:02;12.20;;;6.83;;
479;SDS011;226;48.606;9.096;2022-07-25T00:15:30;16.07;;;6.40;;
479;SDS011;226;48.606;9.096;2022-07-25T00:17:58;12.50;;;6.10;;
479;SDS011;226;48.606;9.096;2022-07-25T00:20:26;10.83;;;5.90;;
479;SDS011;226;48.606;9.096;2022-07-25T00:22:54;11.90;;;7.50;;
479;SDS011;226;48.606;9.096;2022-07-25T00:25:23;11.00;;;6.30;;
479;SDS011;226;48.606;9.096;2022-07-25T00:27:52;12.13;;;6.53;;
479;SDS011;226;48.606;9.096;2022-07-25T00:30:20;11.70;;;6.70;;
479;SDS011;226;48.606;9.096;2022-07-25T00:32:48;13.13;;;6.97;;
479;SDS011;226;48.606;9.096;2022-07-25T00:35:16;10.07;;;6.57;;
479;SDS011;226;48.606;9.096;2022-07-25T00:37:44;11.60;;;7.07;;
479;SDS011;226;48.606;9.096;2022-07-25T00:40:14;14.80;;;7.13;;
479;SDS011;226;48.606;9.096;2022-07-25T00:42:44;11.50;;;6.10;;
479;SDS011;226;48.606;9.096;2022-07-25T00:45:12;14.40;;;6.07;;
479;SDS011;226;48.606;9.096;2022-07-25T00:47:44;9.03;;;6.17;;
479;SDS011;226;48.606;9.096;2022-07-25T00:50:12;14.10;;;7.73;;
479;SDS011;226;48.606;9.096;2022-07-25T00:52:41;17.67;;;7.53;;
479;SDS011;226;48.606;9.096;2022-07-25T00:55:09;15.07;;;6.77;;
479;SDS011;226;48.606;9.096;2022-07-25T00:57:39;12.73;;;6.07;;
479;SDS011;226;48.606;9.096;2022-07-25T01:00:11;16.87;;;7.37;;
479;SDS011;226;48.606;9.096;2022-07-25T01:02:41;13.43;;;6.93;;
479;SDS011;226;48.606;9.096;2022-07-25T01:05:16;12.67;;;7.17;;
479;SDS011;226;48.606;9.096;2022-07-25T01:07:44;13.90;;;7.37;;
479;SDS011;226;48.606;9.096;2022-07-25T01:10:13;13.23;;;5.90;;
479;SDS011;226;48.606;9.096;2022-07-25T01:12:48;9.30;;;6.37;;
479;SDS011;226;48.606;9.096;2022-07-25T01:15:20;9.73;;;6.00;;
479;SDS011;226;48.606;9.096;2022-07-25T01:17:50;16.60;;;8.10;;
479;SDS011;226;48.606;9.096;2022-07-25T01:20:20;11.13;;;7.00;;
479;SDS011;226;48.606;9.096;2022-07-25T01:22:53;8.07;;;5.80;;
479;SDS011;226;48.606;9.096;2022-07-25T01:25:24;16.23;;;7.20;;
479;SDS011;226;48.606;9.096;2022-07-25T01:27:53;16.33;;;7.17;;
479;SDS011;226;48.606;9.096;2022-07-25T01:30:23;16.23;;;6.37;;
479;SDS011;226;48.606;9.096;2022-07-25T01:32:51;18.67;;;6.37;;
479;SDS011;226;48.606;9.096;2022-07-25T01:35:21;13.57;;;6.63;;
479;SDS011;226;48.606;9.096;2022-07-25T01:37:49;13.10;;;6.97;;
479;SDS011;226;48.606;9.096;2022-07-25T01:40:18;11.07;;;6.40;;
479;SDS011;226;48.606;9.096;2022-07-25T01:42:46;14.17;;;6.57;;
479;SDS011;226;48.606;9.096;2022-07-25T01:45:14;12.13;;;6.20;;
479;SDS011;226;48.606;9.096;2022-07-25T01:47:42;9.47;;;6.27;;
479;SDS011;226;48.606;9.096;2022-07-25T01:50:10;11.83;;;6.50;;
479;SDS011;226;48.606;9.096;2022-07-25T01:52:43;15.43;;;6.33;;
479;SDS011;226;48.606;9.096;2022-07-25T01:55:11;9.20;;;5.83;;
479;SDS011;226;48.606;9.096;2022-07-25T01:57:40;15.83;;;7.03;;
479;SDS011;226;48.606;9.096;2022-07-25T02:00:15;15.20;;;8.00;;
479;SDS011;226;48.606;9.096;2022-07-25T02:02:44;10.10;;;6.80;;
479;SDS011;226;48.606;9.096;2022-07-25T02:05:13;14.07;;;7.20;;
479;SDS011;226;48.606;9.096;2022-07-25T02:07:42;14.63;;;7.30;;
479;SDS011;226;48.606;9.096;2022-07-25T02:10:11;14.37;;;7.20;;
479;SDS011;226;48.606;9.096;2022-07-25T02:12:39;10.30;;;6.10;;
479;SDS011;226;48.606;9.096;2022-07-25T02:15:07;12.03;;;6.20;;
479;SDS011;226;48.606;9.096;2022-07-25T02:17:36;13.23;;;6.07;;
479;SDS011;226;48.606;9.096;2022-07-25T02:20:05;11.70;;;6.10;;
479;SDS011;226;48.606;9.096;2022-07-25T02:22:33;12.90;;;6.80;;
479;SDS011;226;48.606;9.096;2022-07-25T02:25:03;14.90;;;6.30;;
479;SDS011;226;48.606;9.096;2022-07-25T02:27:32;13.73;;;6.73;;
479;SDS011;226;48.606;9.096;2022-07-25T02:30:00;17.50;;;7.53;;
479;SDS011;226;48.606;9.096;2022-07-25T02:32:28;12.83;;;6.53;;
479;SDS011;226;48.606;9.096;2022-07-25T02:34:56;10.43;;;6.80;;
479;SDS011;226;48.606;9.096;2022-07-25T02:37:27;11.73;;;6.43;;
479;SDS011;226;48.606;9.096;2022-07-25T02:39:55;11.23;;;6.97;;
479;SDS011;226;48.606;9.096;2022-07-25T02:42:24;16.13;;;7.20;;
479;SDS011;226;48.606;9.096;2022-07-25T02:44:52;9.27;;;5.70;;
479;SDS011;226;48.606;9.096;2022-07-25T02:47:20;15.00;;;6.73;;
479;SDS011;226;48.606;9.096;2022-07-25T02:49:51;13.60;;;5.80;;
479;SDS011;226;48.606;9.096;2022-07-25T02:52:19;9.57;;;5.30;;
479;SDS011;226;48.606;9.096;2022-07-25T02:54:47;11.53;;;6.60;;
479;SDS011;226;48.606;9.096;2022-07-25T02:57:18;13.63;;;6.93;;
479;SDS011;226;48.606;9.096;2022-07-25T02:59:47;10.33;;;5.77;;
479;SDS011;226;48.606;9.096;2022-07-25T03:02:16;9.07;;;5.70;;
479;SDS011;226;48.606;9.096;2022-07-25T03:04:47;10.80;;;6.73;;
479;SDS011;226;48.606;9.096;2022-07-25T03:07:17;9.17;;;5.93;;
479;SDS011;226;48.606;9.096;2022-07-25T03:09:46;14.60;;;7.50;;
479;SDS011;226;48.606;9.096;2022-07-25T03:12:16;12.13;;;6.27;;
479;SDS011;226;48.606;9.096;2022-07-25T03:14:49;17.00;;;7.37;;
479;SDS011;226;48.606;9.096;2022-07-25T03:17:17;12.57;;;6.53;;
479;SDS011;226;48.606;9.096;2022-07-25T03:19:45;12.97;;;7.13;;
479;SDS011;226;48.606;9.096;2022-07-25T03:22:13;14.63;;;7.10;;
479;SDS011;226;48.606;9.096;2022-07-25T03:24:41;11.63;;;6.90;;
479;SDS011;226;48.606;9.096;2022-07-25T03:27:10;10.93;;;6.20;;
479;SDS011;226;48.606;9.096;2022-07-25T03:29:38;13.33;;;7.30;;
479;SDS011;226;48.606;9.096;2022-07-25T03:32:10;16.17;;;6.77;;
479;SDS011;226;48.606;9.096;2022-07-25T03:34:39;12.40;;;6.90;;
479;SDS011;226;48.606;9.096;2022-07-25T03:37:07;19.67;;;8.00;;
479;SDS011;226;48.606;9.096;2022-07-25T03:39:35;16.27;;;8.67;;
479;SDS011;226;48.606;9.096;2022-07-25T03:42:03;14.50;;;7.27;;
479;SDS011;226;48.606;9.096;2022-07-25T03:47:06;16.03;;;6.77;;
479;SDS011;226;48.606;9.096;2022-07-25T03:49:47;14.70;;;7.90;;
479;SDS011;226;48.606;9.096;2022-07-25T03:52:15;11.90;;;7.27;;
479;SDS011;226;48.606;9.096;2022-07-25T03:54:43;10.00;;;6.83;;
479;SDS011;226;48.606;9.096;2022-07-25T03:57:16;14.30;;;6.73;;
479;SDS011;226;48.606;9.096;2022-07-25T03:59:44;16.43;;;7.57;;
479;SDS011;226;48.606;9.096;2022-07-25T04:02:12;12.60;;;6.60;;
479;SDS011;226;48.606;9.096;2022-07-25T04:04:40;14.90;;;7.20;;
479;SDS011;226;48.606;9.096;2022-07-25T04:07:09;14.07;;;7.20;;
479;SDS011;226;48.606;9.096;2022-07-25T04:09:37;14.73;;;7.47;;
479;SDS011;226;48.606;9.096;2022-07-25T04:12:05;13.20;;;6.80;;
479;SDS011;226;48.606;9.096;2022-07-25T04:14:33;12.57;;;7.40;;
479;SDS011;226;48.606;9.096;2022-07-25T04:17:01;13.83;;;6.50;;
479;SDS011;226;48.606;9.096;2022-07-25T04:19:29;14.90;;;7.03;;
479;SDS011;226;48.606;9.096;2022-07-25T04:21:58;14.00;;;6.27;;
479;SDS011;226;48.606;9.096;2022-07-25T04:24:27;14.60;;;7.13;;
479;SDS011;226;48.606;9.096;2022-07-25T04:26:55;14.40;;;7.50;;
479;SDS011;226;48.606;9.096;2022-07-25T04:29:23;14.50;;;7.47;;
479;SDS011;226;48.606;9.096;2022-07-25T04:31:51;13.40;;;7.57;;
479;SDS011;226;48.606;9.096;2022-07-25T04:34:19;16.40;;;7.63;;
479;SDS011;226;48.606;9.096;2022-07-25T04:36:47;12.00;;;7.20;;
479;SDS011;226;48.606;9.096;2022-07-25T04:39:15;15.47;;;7.30;;
479;SDS011;226;48.606;9.096;2022-07-25T04:41:45;14.40;;;8.20;;
479;SDS011;226;48.606;9.096;2022-07-25T04:44:13;12.27;;;6.63;;
479;SDS011;226;48.606;9.096;2022-07-25T04:46:41;13.33;;;8.10;;
479;SDS011;226;48.606;9.096;2022-07-25T04:49:09;14.20;;;7.00;;
479;SDS011;226;48.606;9.096;2022-07-25T04:51:38;11.57;;;6.50;;
479;SDS011;226;48.606;9.096;2022-07-25T04:54:06;11.10;;;7.13;;
479;SDS011;226;48.606;9.096;2022-07-25T04:56:35;12.00;;;6.50;;
479;SDS011;226;48.606;9.096;2022-07-25T04:59:04;14.47;;;6.07;;
479;SDS011;226;48.606;9.096;2022-07-25T05:01:33;12.90;;;6.87;;
479;SDS011;226;48.606;9.096;2022-07-25T05:04:01;12.33;;;6.73;;
479;SDS011;226;48.606;9.096;2022-07-25T05:06:30;12.43;;;6.30;;
479;SDS011;226;48.606;9.096;2022-07-25T05:08:58;13.50;;;6.63;;
479;SDS011;226;48.606;9.096;2022-07-25T05:11:26;10.87;;;5.87;;
479;SDS011;226;48.606;9.096;2022-07-25T05:13:54;16.17;;;6.37;;
479;SDS011;226;48.606;9.096;2022-07-25T05:16:24;11.23;;;7.17;;
479;SDS011;226;48.606;9.096;2022-07-25T05:18:52;8.87;;;5.83;;
479;SDS011;226;48.606;9.096;2022-07-25T05:21:20;14.30;;;7.43;;
479;SDS011;226;48.606;9.096;2022-07-25T05:23:48;11.37;;;6.40;;
479;SDS011;226;48.606;9.096;2022-07-25T05:26:16;16.73;;;7.33;;
479;SDS011;226;48.606;9.096;2022-07-25T05:28:44;11.07;;;6.50;;
479;SDS011;226;48.606;9.096;2022-07-25T05:31:12;10.87;;;6.43;;
479;SDS011;226;48.606;9.096;2022-07-25T05:33:42;11.37;;;6.63;;
479;SDS011;226;48.606;9.096;2022-07-25T05:36:10;12.13;;;7.03;;
479;SDS011;226;48.606;9.096;2022-07-25T05:38:39;13.93;;;6.53;;
479;SDS011;226;48.606;9.096;2022-07-25T05:41:08;13.50;;;7.17;;
479;SDS011;226;48.606;9.096;2022-07-25T05:43:36;12.17;;;8.10;;
479;SDS011;226;48.606;9.096;2022-07-25T05:46:04;12.70;;;7.37;;
479;SDS011;226;48.606;9.096;2022-07-25T05:48:32;8.97;;;5.83;;
479;SDS011;226;48.606;9.096;2022-07-25T05:51:02;18.00;;;7.07;;
479;SDS011;226;48.606;9.096;2022-07-25T05:53:30;10.83;;;6.80;;
479;SDS011;226;48.606;9.096;2022-07-25T05:55:58;11.20;;;6.43;;
479;SDS011;226;48.606;9.096;2022-07-25T05:58:26;14.37;;;7.60;;
479;SDS011;226;48.606;9.096;2022-07-25T06:00:55;18.83;;;8.70;;
479;SDS011;226;48.606;9.096;2022-07-25T06:03:23;19.13;;;7.07;;
479;SDS011;226;48.606;9.096;2022-07-25T06:05:53;11.83;;;6.80;;
479;SDS011;226;48.606;9.096;2022-07-25T06:08:23;14.83;;;7.67;;
479;SDS011;226;48.606;9.096;2022-07-25T06:10:54;10.83;;;6.70;;
479;SDS011;226;48.606;9.096;2022-07-25T06:13:23;12.87;;;6.60;;
479;SDS011;226;48.606;9.096;2022-07-25T06:15:53;15.20;;;6.97;;
479;SDS011;226;48.606;9.096;2022-07-25T06:18:21;9.70;;;6.50;;
479;SDS011;226;48.606;9.096;2022-07-25T06:20:49;10.83;;;7.00;;
479;SDS011;226;48.606;9.096;2022-07-25T06:23:18;9.80;;;6.30;;
479;SDS011;226;48.606;9.096;2022-07-25T06:25:48;10.17;;;6.40;;
479;SDS011;226;48.606;9.096;2022-07-25T06:28:17;11.77;;;6.70;;
479;SDS011;226;48.606;9.096;2022-07-25T06:30:46;11.33;;;7.30;;
479;SDS011;226;48.606;9.096;2022-07-25T06:33:14;13.37;;;7.20;;
479;SDS011;226;48.606;9.096;2022-07-25T06:35:43;8.87;;;6.20;;
479;SDS011;226;48.606;9.096;2022-07-25T06:38:10;9.10;;;5.73;;
479;SDS011;226;48.606;9.096;2022-07-25T06:40:39;13.60;;;6.53;;
479;SDS011;226;48.606;9.096;2022-07-25T06:43:08;11.17;;;6.37;;
479;SDS011;226;48.606;9.096;2022-07-25T06:45:36;13.00;;;7.37;;
479;SDS011;226;48.606;9.096;2022-07-25T06:48:04;9.33;;;5.83;;
479;SDS011;226;48.606;9.096;2022-07-25T06:50:32;12.90;;;6.63;;
479;SDS011;226;48.606;9.096;2022-07-25T06:53:01;9.10;;;6.13;;
479;SDS011;226;48.606;9.096;2022-07-25T06:55:29;11.70;;;6.47;;
479;SDS011;226;48.606;9.096;2022-07-25T06:57:57;11.10;;;7.17;;
479;SDS011;226;48.606;9.096;2022-07-25T07:00:26;8.33;;;6.20;;
479;SDS011;226;48.606;9.096;2022-07-25T07:02:55;11.50;;;6.17;;
479;SDS011;226;48.606;9.096;2022-07-25T07:05:27;12.80;;;7.23;;
479;SDS011;226;48.606;9.096;2022-07-25T07:07:56;10.60;;;6.40;;
479;SDS011;226;48.606;9.096;2022-07-25T07:10:25;7.80;;;5.50;;
479;SDS011;226;48.606;9.096;2022-07-25T07:13:03;10.63;;;5.83;;
479;SDS011;226;48.606;9.096;2022-07-25T07:15:34;10.10;;;5.97;;
479;SDS011;226;48.606;9.096;2022-07-25T07:18:03;10.80;;;6.87;;
479;SDS011;226;48.606;9.096;2022-07-25T07:20:31;11.57;;;6.30;;
479;SDS011;226;48.606;9.096;2022-07-25T07:22:59;9.67;;;6.70;;
479;SDS011;226;48.606;9.096;2022-07-25T07:25:28;11.67;;;6.20;;
479;SDS011;226;48.606;9.096;2022-07-25T07:27:56;8.70;;;5.87;;
479;SDS011;226;48.606;9.096;2022-07-25T07:30:24;14.57;;;6.37;;
479;SDS011;226;48.606;9.096;2022-07-25T07:33:13;9.33;;;6.50;;
479;SDS011;226;48.606;9.096;2022-07-25T07:35:42;8.93;;;5.50;;
479;SDS011;226;48.606;9.096;2022-07-25T07:38:11;11.83;;;6.67;;
479;SDS011;226;48.606;9.096;2022-07-25T07:40:40;10.53;;;6.97;;
479;SDS011;226;48.606;9.096;2022-07-25T07:43:08;9.20;;;5.90;;
479;SDS011;226;48.606;9.096;2022-07-25T07:45:36;11.43;;;7.10;;
479;SDS011;226;48.606;9.096;2022-07-25T07:48:04;9.77;;;6.30;;
479;SDS011;226;48.606;9.096;2022-07-25T07:50:34;15.50;;;6.63;;
479;SDS011;226;48.606;9.096;2022-07-25T07:53:02;9.40;;;5.67;;
479;SDS011;226;48.606;9.096;2022-07-25T07:55:32;12.20;;;6.40;;
479;SDS011;226;48.606;9.096;2022-07-25T07:58:12;13.23;;;6.77;;
479;SDS011;226;48.606;9.096;2022-07-25T08:00:42;14.00;;;6.97;;
479;SDS011;226;48.606;9.096;2022-07-25T08:03:11;12.63;;;6.53;;
479;SDS011;226;48.606;9.096;2022-07-25T08:05:44;10.20;;;6.50;;
479;SDS011;226;48.606;9.096;2022-07-25T08:08:13;14.33;;;6.97;;
479;SDS011;226;48.606;9.096;2022-07-25T08:10:42;15.90;;;7.00;;
479;SDS011;226;48.606;9.096;2022-07-25T08:13:11;8.93;;;6.23;;
479;SDS011;226;48.606;9.096;2022-07-25T08:15:42;9.80;;;6.07;;
479;SDS011;226;48.606;9.096;2022-07-25T08:18:11;13.27;;;6.70;;
479;SDS011;226;48.606;9.096;2022-07-25T08:20:44;7.97;;;6.17;;
479;SDS011;226;48.606;9.096;2022-07-25T08:23:13;12.67;;;7.07;;
479;SDS011;226;48.606;9.096;2022-07-25T08:25:46;8.17;;;5.73;;
479;SDS011;226;48.606;9.096;2022-07-25T08:28:16;9.37;;;6.00;;
479;SDS011;226;48.606;9.096;2022-07-25T08:30:44;12.07;;;6.03;;
479;SDS011;226;48.606;9.096;2022-07-25T08:33:13;13.20;;;6.73;;
479;SDS011;226;48.606;9.096;2022-07-25T08:35:46;9.70;;;5.77;;
479;SDS011;226;48.606;9.096;2022-07-25T08:38:17;9.57;;;5.67;;
479;SDS011;226;48.606;9.096;2022-07-25T08:40:45;12.00;;;7.30;;
479;SDS011;226;48.606;9.096;2022-07-25T08:43:15;8.57;;;4.80;;
479;SDS011;226;48.606;9.096;2022-07-25T08:45:45;12.50;;;6.60;;
479;SDS011;226;48.606;9.096;2022-07-25T08:48:15;8.70;;;6.00;;
479;SDS011;226;48.606;9.096;2022-07-25T08:50:46;8.47;;;5.83;;
479;SDS011;226;48.606;9.096;2022-07-25T08:53:15;9.73;;;5.60;;
479;SDS011;226;48.606;9.096;2022-07-25T08:56:02;8.80;;;6.17;;
479;SDS011;226;48.606;9.096;2022-07-25T08:58:40;13.50;;;6.80;;
479;SDS011;226;48.606;9.096;2022-07-25T09:01:09;9.63;;;5.63;;
479;SDS011;226;48.606;9.096;2022-07-25T09:03:38;7.63;;;5.40;;
479;SDS011;226;48.606;9.096;2022-07-25T09:06:16;9.53;;;6.10;;
479;SDS011;226;48.606;9.096;2022-07-25T09:08:53;10.93;;;6.40;;
479;SDS011;226;48.606;9.096;2022-07-25T09:11:25;6.93;;;5.47;;
479;SDS011;226;48.606;9.096;2022-07-25T09:13:58;10.13;;;6.23;;
479;SDS011;226;48.606;9.096;2022-07-25T09:16:30;12.57;;;5.27;;
479;SDS011;226;48.606;9.096;2022-07-25T09:19:10;9.23;;;5.43;;
479;SDS011;226;48.606;9.096;2022-07-25T09:21:42;6.73;;;5.27;;
479;SDS011;226;48.606;9.096;2022-07-25T09:24:12;11.17;;;5.90;;
479;SDS011;226;48.606;9.096;2022-07-25T09:26:43;6.80;;;5.40;;
479;SDS011;226;48.606;9.096;2022-07-25T09:29:19;12.13;;;5.47;;
479;SDS011;226;48.606;9.096;2022-07-25T09:31:49;10.33;;;5.80;;
479;SDS011;226;48.606;9.096;2022-07-25T09:34:34;10.27;;;6.20;;
479;SDS011;226;48.606;9.096;2022-07-25T09:37:05;10.10;;;6.87;;
479;SDS011;226;48.606;9.096;2022-07-25T09:39:35;8.57;;;5.50;;
479;SDS011;226;48.606;9.096;2022-07-25T09:42:15;8.00;;;5.50;;
479;SDS011;226;48.606;9.096;2022-07-25T09:44:55;10.83;;;6.60;;
479;SDS011;226;48.606;9.096;2022-07-25T09:47:25;6.40;;;4.90;;
479;SDS011;226;48.606;9.096;2022-07-25T09:49:53;8.40;;;5.70;;
479;SDS011;226;48.606;9.096;2022-07-25T09:52:23;7.33;;;5.80;;
479;SDS011;226;48.606;9.096;2022-07-25T09:54:51;8.30;;;5.90;;
479;SDS011;226;48.606;9.096;2022-07-25T09:57:20;7.10;;;5.60;;
479;SDS011;226;48.606;9.096;2022-07-25T09:59:49;13.03;;;6.00;;
479;SDS011;226;48.606;9.096;2022-07-25T10:02:21;8.20;;;5.40;;
479;SDS011;226;48.606;9.096;2022-07-25T10:05:04;5.80;;;4.27;;
479;SDS011;226;48.606;9.096;2022-07-25T10:07:40;10.13;;;5.20;;
479;SDS011;226;48.606;9.096;2022-07-25T10:12:59;10.40;;;4.77;;
479;SDS011;226;48.606;9.096;2022-07-25T10:15:38;7.20;;;4.80;;
479;SDS011;226;48.606;9.096;2022-07-25T10:18:11;8.30;;;4.67;;
479;SDS011;226;48.606;9.096;2022-07-25T10:20:40;4.20;;;3.77;;
479;SDS011;226;48.606;9.096;2022-07-25T10:23:17;7.87;;;4.90;;
479;SDS011;226;48.606;9.096;2022-07-25T10:25:46;6.67;;;4.43;;
479;SDS011;226;48.606;9.096;2022-07-25T10:28:34;5.93;;;3.73;;
479;SDS011;226;48.606;9.096;2022-07-25T10:31:16;4.13;;;3.30;;
479;SDS011;226;48.606;9.096;2022-07-25T10:33:49;3.77;;;2.73;;
479;SDS011;226;48.606;9.096;2022-07-25T10:36:19;6.50;;;3.37;;
479;SDS011;226;48.606;9.096;2022-07-25T10:38:51;4.50;;;2.90;;
479;SDS011;226;48.606;9.096;2022-07-25T10:41:23;2.90;;;2.60;;
479;SDS011;226;48.606;9.096;2022-07-25T10:43:55;4.20;;;2.63;;
479;SDS011;226;48.606;9.096;2022-07-25T10:46:26;4.40;;;3.17;;
479;SDS011;226;48.606;9.096;2022-07-25T10:48:57;2.90;;;2.57;;
479;SDS011;226;48.606;9.096;2022-07-25T10:51:26;5.63;;;2.40;;
479;SDS011;226;48.606;9.096;2022-07-25T10:53:57;4.30;;;2.50;;
479;SDS011;226;48.606;9.096;2022-07-25T10:56:26;4.97;;;2.90;;
479;SDS011;226;48.606;9.096;2022-07-25T10:58:55;4.83;;;2.70;;
479;SDS011;226;48.606;9.096;2022-07-25T11:01:25;4.33;;;2.53;;
479;SDS011;226;48.606;9.096;2022-07-25T11:03:56;4.77;;;2.97;;
479;SDS011;226;48.606;9.096;2022-07-25T11:06:29;4.47;;;3.53;;
479;SDS011;226;48.606;9.096;2022-07-25T11:09:00;4.13;;;2.93;;
479;SDS011;226;48.606;9.096;2022-07-25T11:11:33;3.77;;;2.87;;
479;SDS011;226;48.606;9.096;2022-07-25T11:14:02;4.97;;;2.93;;
479;SDS011;226;48.606;9.096;2022-07-25T11:16:31;4.53;;;3.30;;
479;SDS011;226;48.606;9.096;2022-07-25T11:19:00;5.40;;;3.30;;
479;SDS011;226;48.606;9.096;2022-07-25T11:21:28;2.43;;;2.20;;
479;SDS011;226;48.606;9.096;2022-07-25T11:23:56;4.10;;;3.40;;
479;SDS011;226;48.606;9.096;2022-07-25T11:26:25;4.27;;;2.97;;
479;SDS011;226;48.606;9.096;2022-07-25T11:28:54;4.40;;;3.20;;
479;SDS011;226;48.606;9.096;2022-07-25T11:31:22;4.27;;;2.20;;
479;SDS011;226;48.606;9.096;2022-07-25T11:33:50;3.20;;;2.47;;
479;SDS011;226;48.606;9.096;2022-07-25T11:36:18;2.93;;;2.73;;
479;SDS011;226;48.606;9.096;2022-07-25T11:38:47;3.30;;;2.30;;
479;SDS011;226;48.606;9.096;2022-07-25T11:41:27;3.33;;;2.67;;
479;SDS011;226;48.606;9.096;2022-07-25T11:43:56;5.03;;;3.50;;
479;SDS011;226;48.606;9.096;2022-07-25T11:46:23;3.53;;;2.40;;
479;SDS011;226;48.606;9.096;2022-07-25T11:49:01;4.93;;;3.90;;
479;SDS011;226;48.606;9.096;2022-07-25T11:51:35;3.17;;;2.80;;
479;SDS011;226;48.606;9.096;2022-07-25T11:54:07;6.00;;;3.70;;
479;SDS011;226;48.606;9.096;2022-07-25T11:56:39;4.37;;;3.10;;
479;SDS011;226;48.606;9.096;2022-07-25T11:59:09;4.20;;;3.30;;
479;SDS011;226;48.606;9.096;2022-07-25T12:01:38;3.40;;;3.07;;
479;SDS011;226;48.606;9.096;2022-07-25T12:04:11;3.90;;;2.90;;
479;SDS011;226;48.606;9.096;2022-07-25T12:06:40;3.17;;;2.87;;
479;SDS011;226;48.606;9.096;2022-07-25T12:09:13;3.27;;;2.70;;
479;SDS011;226;48.606;9.096;2022-07-25T12:11:46;5.53;;;3.60;;
479;SDS011;226;48.606;9.096;2022-07-25T12:14:15;5.00;;;3.40;;
479;SDS011;226;48.606;9.096;2022-07-25T12:16:43;3.93;;;3.03;;
479;SDS011;226;48.606;9.096;2022-07-25T12:19:18;3.30;;;3.00;;
479;SDS011;226;48.606;9.096;2022-07-25T12:21:47;3.23;;;2.90;;
479;SDS011;226;48.606;9.096;2022-07-25T12:24:15;4.63;;;3.30;;
479;SDS011;226;48.606;9.096;2022-07-25T12:26:43;3.23;;;2.83;;
479;SDS011;226;48.606;9.096;2022-07-25T12:29:13;4.10;;;3.30;;
479;SDS011;226;48.606;9.096;2022-07-25T12:31:41;3.17;;;2.70;;
479;SDS011;226;48.606;9.096;2022-07-25T12:34:09;3.13;;;2.80;;
479;SDS011;226;48.606;9.096;2022-07-25T12:36:37;3.17;;;2.77;;
479;SDS011;226;48.606;9.096;2022-07-25T12:39:09;3.20;;;2.87;;
479;SDS011;226;48.606;9.096;2022-07-25T12:41:37;7.30;;;3.57;;
479;SDS011;226;48.606;9.096;2022-07-25T12:44:09;3.50;;;3.20;;
479;SDS011;226;48.606;9.096;2022-07-25T12:46:37;3.80;;;3.30;;
479;SDS011;226;48.606;9.096;2022-07-25T12:49:14;4.17;;;3.53;;
479;SDS011;226;48.606;9.096;2022-07-25T12:51:42;3.80;;;3.33;;
479;SDS011;226;48.606;9.096;2022-07-25T12:54:11;6.03;;;3.60;;
479;SDS011;226;48.606;9.096;2022-07-25T12:56:47;4.77;;;3.13;;
479;SDS011;226;48.606;9.096;2022-07-25T12:59:17;4.00;;;3.60;;
479;SDS011;226;48.606;9.096;2022-07-25T13:01:45;4.00;;;3.60;;
479;SDS011;226;48.606;9.096;2022-07-25T13:04:13;4.30;;;3.20;;
479;SDS011;226;48.606;9.096;2022-07-25T13:06:41;3.90;;;3.33;;
479;SDS011;226;48.606;9.096;2022-07-25T13:09:09;3.00;;;2.70;;
479;SDS011;226;48.606;9.096;2022-07-25T13:11:37;4.23;;;2.93;;
479;SDS011;226;48.606;9.096;2022-07-25T13:14:05;4.73;;;3.67;;
479;SDS011;226;48.606;9.096;2022-07-25T13:16:34;3.47;;;3.10;;
479;SDS011;226;48.606;9.096;2022-07-25T13:19:03;6.30;;;4.07;;
479;SDS011;226;48.606;9.096;2022-07-25T13:21:34;4.33;;;3.20;;
479;SDS011;226;48.606;9.096;2022-07-25T13:24:02;5.77;;;3.70;;
479;SDS011;226;48.606;9.096;2022-07-25T13:26:32;3.90;;;3.53;;
479;SDS011;226;48.606;9.096;2022-07-25T13:29:00;4.23;;;3.43;;
479;SDS011;226;48.606;9.096;2022-07-25T13:31:36;4.47;;;3.60;;
479;SDS011;226;48.606;9.096;2022-07-25T13:34:05;4.83;;;3.80;;
479;SDS011;226;48.606;9.096;2022-07-25T13:36:34;3.87;;;3.47;;
479;SDS011;226;48.606;9.096;2022-07-25T13:39:03;7.17;;;4.80;;
479;SDS011;226;48.606;9.096;2022-07-25T13:41:32;4.87;;;4.33;;
479;SDS011;226;48.606;9.096;2022-07-25T13:44:00;4.27;;;3.70;;
479;SDS011;226;48.606;9.096;2022-07-25T13:46:28;7.63;;;3.63;;
479;SDS011;226;48.606;9.096;2022-07-25T13:48:58;7.60;;;5.60;;
479;SDS011;226;48.606;9.096;2022-07-25T13:51:26;4.70;;;4.10;;
479;SDS011;226;48.606;9.096;2022-07-25T13:53:55;5.03;;;3.20;;
479;SDS011;226;48.606;9.096;2022-07-25T13:56:23;5.60;;;3.90;;
479;SDS011;226;48.606;9.096;2022-07-25T13:58:51;3.83;;;2.90;;
479;SDS011;226;48.606;9.096;2022-07-25T14:01:19;5.33;;;3.60;;
479;SDS011;226;48.606;9.096;2022-07-25T14:03:47;3.53;;;3.23;;
479;SDS011;226;48.606;9.096;2022-07-25T14:06:16;5.03;;;3.70;;
479;SDS011;226;48.606;9.096;2022-07-25T14:08:44;4.63;;;4.00;;
479;SDS011;226;48.606;9.096;2022-07-25T14:11:12;6.07;;;4.30;;
479;SDS011;226;48.606;9.096;2022-07-25T14:13:41;3.90;;;3.40;;
479;SDS011;226;48.606;9.096;2022-07-25T14:16:11;7.93;;;3.73;;
479;SDS011;226;48.606;9.096;2022-07-25T14:18:41;6.07;;;4.87;;
479;SDS011;226;48.606;9.096;2022-07-25T14:21:09;8.53;;;4.80;;
479;SDS011;226;48.606;9.096;2022-07-25T14:23:39;7.63;;;4.40;;
479;SDS011;226;48.606;9.096;2022-07-25T14:26:07;4.07;;;3.67;;
479;SDS011;226;48.606;9.096;2022-07-25T14:28:35;5.90;;;3.90;;
479;SDS011;226;48.606;9.096;2022-07-25T14:31:03;8.90;;;4.47;;
479;SDS011;226;48.606;9.096;2022-07-25T14:33:31;6.30;;;4.20;;
479;SDS011;226;48.606;9.096;2022-07-25T14:36:03;6.23;;;4.73;;
479;SDS011;226;48.606;9.096;2022-07-25T14:38:31;8.73;;;4.37;;
479;SDS011;226;48.606;9.096;2022-07-25T14:41:01;4.50;;;4.00;;
479;SDS011;226;48.606;9.096;2022-07-25T14:43:35;7.97;;;4.83;;
479;SDS011;226;48.606;9.096;2022-07-25T14:46:04;7.47;;;4.73;;
479;SDS011;226;48.606;9.096;2022-07-25T14:48:33;5.77;;;4.70;;
479;SDS011;226;48.606;9.096;2022-07-25T14:51:02;8.00;;;4.77;;
479;SDS011;226;48.606;9.096;2022-07-25T14:53:31;6.93;;;4.30;;
479;SDS011;226;48.606;9.096;2022-07-25T14:56:02;6.50;;;4.77;;
479;SDS011;226;48.606;9.096;2022-07-25T14:58:31;6.80;;;5.37;;
479;SDS011;226;48.606;9.096;2022-07-25T15:01:00;5.43;;;4.30;;
479;SDS011;226;48.606;9.096;2022-07-25T15:03:28;6.30;;;4.17;;
479;SDS011;226;48.606;9.096;2022-07-25T15:05:56;4.83;;;4.33;;
479;SDS011;226;48.606;9.096;2022-07-25T15:08:25;7.43;;;4.50;;
479;SDS011;226;48.606;9.096;2022-07-25T15:10:54;4.90;;;4.20;;
479;SDS011;226;48.606;9.096;2022-07-25T15:13:23;5.47;;;4.30;;
479;SDS011;226;48.606;9.096;2022-07-25T15:15:57;6.50;;;4.23;;
479;SDS011;226;48.606;9.096;2022-07-25T15:18:25;6.90;;;4.43;;
479;SDS011;226;48.606;9.096;2022-07-25T15:20:53;5.10;;;4.13;;
479;SDS011;226;48.606;9.096;2022-07-25T15:23:21;9.10;;;4.27;;
479;SDS011;226;48.606;9.096;2022-07-25T15:25:55;5.50;;;4.60;;
479;SDS011;226;48.606;9.096;2022-07-25T15:28:30;5.23;;;3.83;;
479;SDS011;226;48.606;9.096;2022-07-25T15:30:58;4.83;;;3.90;;
479;SDS011;226;48.606;9.096;2022-07-25T15:33:27;6.17;;;3.97;;
479;SDS011;226;48.606;9.096;2022-07-25T15:35:55;6.17;;;4.67;;
479;SDS011;226;48.606;9.096;2022-07-25T15:38:23;6.50;;;4.27;;
479;SDS011;226;48.606;9.096;2022-07-25T15:40:51;8.67;;;4.87;;
479;SDS011;226;48.606;9.096;2022-07-25T15:43:20;7.20;;;5.10;;
479;SDS011;226;48.606;9.096;2022-07-25T15:45:49;5.40;;;4.27;;
479;SDS011;226;48.606;9.096;2022-07-25T15:48:17;7.30;;;4.23;;
479;SDS011;226;48.606;9.096;2022-07-25T15:50:47;9.60;;;5.00;;
479;SDS011;226;48.606;9.096;2022-07-25T15:53:16;5.47;;;4.83;;
479;SDS011;226;48.606;9.096;2022-07-25T15:55:45;6.50;;;4.60;;
479;SDS011;226;48.606;9.096;2022-07-25T15:58:13;7.67;;;4.20;;